Aeroporto :
LOGIN :

Iscrizione | Disclaimer

   EN    FR    IT 

 










Sommario :    VFR   VFR Marginale   IFR   IFR Intensivo   IFR Molto Intensivo
Visibilità : 
Base nubi : 
>= 8 km
>= 3000ft
5 / 8 km
1000 / 3000 ft
1500m / 5 km
500 / 1000 ft
800 / 1500m
200 / 500 ft
< 800m
< 200 ft
Simboli :   Temporali  Nebbia  Neve Forte  Precipitazioni Forti  Vento > 20 kt
SIGMETs :   Varie  Temporali  Ghiacco  Turbolenza  Onda orograficha  Ceneri Vulcaniche






- Altitudine del aeroporto : 202 ft
- Codice IATA : LGW


EGKK - London Gatwick

ULTIMO METAR :
  • 241150Z 23018G28KT 3200 -DZRA BKN006 BKN017 10/10 Q1009

METARs OBSOLETI :
  • 241120Z 22017KT 3200 -DZRA BKN006 BKN018 10/10 Q1009 RERA REDZ
  • 241050Z 23018G29KT 4000 DZRA BKN007 BKN014 10/10 Q1010
  • 241020Z 23019KT 5000 -RADZ BKN007 BKN017 10/10 Q1010
  • 240950Z 22017G29KT 9999 FEW008 BKN012 BKN017 11/10 Q1010
  • 240920Z 23015G25KT 4300 -RADZ BKN007 BKN016 10/10 Q1011
  • 240850Z 23016KT 190V250 6000 -RADZ BKN007 BKN016 10/10 Q1011

TAF TAF EGKK
Valido dal 24 a 12 ore il 25 a 18 ore UTC


241101Z 2412/2518 22020G30KT 9999 BKN012
TEMPO 2412/2417 4000 -RADZ BKN007
BECMG 2417/2420 26012KT SCT025
PROB30
TEMPO 2507/2516 26015G25KT 7000 SHRA
PROB40
TEMPO 2516/2518 26015G25KT 4000 +SHRAGS BKN012CB



MetMap, La meteo Aeronautica in un colpo d'occhio ! - Copyright ORBIFLY Dicembre 2007 - Disclaimer

ORBIFLY MET'MAP TEAM :

Programmazione e sviluppo : Alexandra Zaïnal
Concezione : Baudouin d'Aumeries
Aiuto per la programmazione : Marc-Olivier Méhu
Supporto tecnico e logistico : Manuel Goepfert
Aiuto per la traduzione : Arnaldo La Scala

Contatto : metmap@orbifly.com




FONTI E CREDITI :

   NOAA